createdAt,value
2023-02-22T00:00:19.253Z,3.37
2023-02-22T00:05:23.228Z,3.20
2023-02-22T00:10:27.031Z,3.36
2023-02-22T00:15:30.066Z,3.47
2023-02-22T00:20:33.341Z,3.45
2023-02-22T00:25:36.994Z,3.28
2023-02-22T00:30:40.153Z,3.28
2023-02-22T00:35:48.416Z,3.34
2023-02-22T00:40:52.331Z,3.28
2023-02-22T00:45:57.509Z,3.19
2023-02-22T00:51:01.970Z,3.11
2023-02-22T00:56:07.096Z,3.08
2023-02-22T01:01:11.638Z,2.94
2023-02-22T01:06:15.386Z,2.95
2023-02-22T01:11:19.054Z,2.93
2023-02-22T01:16:22.465Z,2.83
2023-02-22T01:21:25.721Z,2.79
2023-02-22T01:26:30.305Z,2.81
2023-02-22T01:31:33.437Z,2.65
2023-02-22T01:36:36.962Z,2.52
2023-02-22T01:41:40.656Z,2.44
2023-02-22T01:46:44.657Z,2.44
2023-02-22T01:51:53.000Z,2.56
2023-02-22T01:57:25.018Z,2.60
2023-02-22T02:02:29.652Z,2.64
2023-02-22T02:07:33.699Z,2.62
2023-02-22T02:12:37.480Z,2.50
2023-02-22T02:17:41.653Z,2.45
2023-02-22T02:23:08.647Z,2.42
2023-02-22T02:28:30.589Z,2.41
2023-02-22T02:33:35.834Z,2.43
2023-02-22T02:38:58.414Z,2.50
2023-02-22T02:44:18.228Z,2.51
2023-02-22T02:49:29.474Z,2.42
2023-02-22T02:54:33.647Z,2.26
2023-02-22T02:59:38.163Z,2.30
2023-02-22T03:05:07.619Z,2.30
2023-02-22T03:10:34.414Z,2.19
2023-02-22T03:15:59.583Z,2.11
2023-02-22T03:21:20.002Z,2.16
2023-02-22T03:26:33.601Z,2.02
2023-02-22T03:31:49.565Z,2.02
2023-02-22T03:37:04.890Z,2.11
2023-02-22T03:42:30.126Z,1.95
2023-02-22T03:47:42.607Z,1.78
2023-02-22T03:52:47.796Z,1.74
2023-02-22T03:58:01.510Z,1.74
2023-02-22T04:03:07.216Z,1.79
2023-02-22T04:08:10.401Z,1.76
2023-02-22T04:13:14.904Z,1.75
2023-02-22T04:18:22.465Z,1.80
2023-02-22T04:23:27.269Z,1.79
2023-02-22T04:28:31.111Z,1.81
2023-02-22T04:33:50.648Z,1.88
2023-02-22T04:39:00.364Z,1.84
2023-02-22T04:44:05.660Z,1.86
2023-02-22T04:49:09.153Z,1.87
2023-02-22T04:54:17.968Z,1.82
2023-02-22T04:59:23.570Z,1.82
2023-02-22T05:04:32.474Z,1.81
2023-02-22T05:09:35.997Z,1.71
2023-02-22T05:14:39.652Z,1.78
2023-02-22T05:19:43.800Z,1.75
2023-02-22T05:24:47.085Z,1.71
2023-02-22T05:29:50.208Z,1.76
2023-02-22T05:34:53.734Z,1.93
2023-02-22T05:39:56.981Z,1.86
2023-02-22T05:45:00.853Z,1.78
2023-02-22T05:50:04.526Z,1.66
2023-02-22T05:55:09.465Z,1.70
2023-02-22T06:00:20.206Z,1.61
2023-02-22T06:05:23.632Z,1.53
2023-02-22T06:10:27.660Z,1.53
2023-02-22T06:15:31.646Z,1.60
2023-02-22T06:20:35.826Z,1.78
2023-02-22T06:25:39.918Z,2.07
2023-02-22T06:30:43.522Z,2.43
2023-02-22T06:35:47.218Z,3.17
2023-02-22T06:40:50.563Z,4.96
2023-02-22T06:45:53.781Z,10.12
2023-02-22T06:50:57.284Z,12.86
2023-02-22T06:56:00.625Z,15.21
2023-02-22T07:01:04.244Z,16.16
2023-02-22T07:06:08.829Z,16.91
2023-02-22T07:11:12.607Z,17.69
2023-02-22T07:16:16.247Z,17.77
2023-02-22T07:21:19.531Z,18.35
2023-02-22T07:26:24.353Z,17.08
2023-02-22T07:31:29.657Z,17.70
2023-02-22T07:36:32.835Z,17.78
2023-02-22T07:41:35.861Z,17.97
2023-02-22T07:46:39.066Z,17.63
2023-02-22T07:51:42.774Z,17.52
2023-02-22T07:56:49.386Z,18.11
2023-02-22T08:01:53.019Z,18.71
2023-02-22T08:06:56.978Z,17.83
2023-02-22T08:12:00.121Z,18.47
2023-02-22T08:17:04.505Z,18.02
2023-02-22T08:22:08.188Z,18.57
2023-02-22T08:27:12.157Z,18.19
2023-02-22T08:32:16.962Z,18.40
2023-02-22T08:37:20.651Z,18.45
2023-02-22T08:42:24.546Z,19.17
2023-02-22T08:47:27.713Z,18.81
2023-02-22T08:52:31.721Z,19.09
2023-02-22T08:57:34.852Z,17.94
2023-02-22T09:02:38.335Z,18.98
2023-02-22T09:07:42.801Z,18.16
2023-02-22T09:12:46.240Z,18.04
2023-02-22T09:17:49.610Z,18.64
2023-02-22T09:22:54.083Z,19.09
2023-02-22T09:27:58.645Z,18.97
2023-02-22T09:33:05.744Z,18.84
2023-02-22T09:38:11.710Z,18.66
2023-02-22T09:43:38.117Z,20.07
2023-02-22T09:49:00.680Z,18.67
2023-02-22T09:54:06.593Z,19.00
2023-02-22T09:59:15.959Z,18.89
2023-02-22T10:04:42.800Z,18.56
2023-02-22T10:09:49.870Z,18.90
2023-02-22T10:14:58.986Z,18.74
2023-02-22T10:20:33.448Z,18.59
2023-02-22T10:25:39.520Z,18.95
2023-02-22T10:30:55.036Z,18.93
2023-02-22T10:35:58.983Z,18.45
2023-02-22T10:41:11.340Z,18.80
2023-02-22T10:46:19.893Z,18.67
2023-02-22T10:51:23.999Z,18.77
2023-02-22T10:56:28.796Z,18.51
2023-02-22T11:01:31.975Z,18.30
2023-02-22T11:06:38.425Z,17.68
2023-02-22T11:11:44.346Z,18.19
2023-02-22T11:16:53.570Z,17.16
2023-02-22T11:22:12.917Z,17.62
2023-02-22T11:27:31.849Z,17.29
2023-02-22T11:32:36.789Z,16.73
2023-02-22T11:37:40.353Z,17.12
2023-02-22T11:42:43.839Z,17.63
2023-02-22T11:47:52.976Z,17.03
2023-02-22T11:53:32.375Z,17.30
2023-02-22T11:58:47.512Z,17.29
2023-02-22T12:04:24.100Z,17.09
2023-02-22T12:09:33.274Z,18.24
2023-02-22T12:14:58.311Z,18.42
2023-02-22T12:20:10.575Z,17.66
2023-02-22T12:25:19.996Z,18.25
2023-02-22T12:30:29.269Z,18.35
2023-02-22T12:35:43.252Z,18.57
2023-02-22T12:41:14.339Z,18.85
2023-02-22T12:46:27.676Z,19.52
2023-02-22T12:51:42.226Z,19.43
2023-02-22T12:56:58.637Z,20.23
2023-02-22T13:02:13.963Z,20.76
2023-02-22T13:07:35.225Z,18.50
2023-02-22T13:12:42.950Z,19.29
2023-02-22T13:18:01.754Z,19.35
2023-02-22T13:23:19.494Z,19.63
2023-02-22T13:28:30.962Z,19.44
2023-02-22T13:33:53.252Z,19.30
2023-02-22T13:39:22.135Z,18.85
2023-02-22T13:45:04.724Z,19.04
2023-02-22T13:50:31.258Z,18.53
2023-02-22T13:55:37.411Z,19.15
2023-02-22T14:00:41.197Z,19.36
2023-02-22T14:05:45.216Z,18.66
2023-02-22T14:10:55.864Z,18.93
2023-02-22T14:16:02.871Z,19.85
2023-02-22T14:21:16.199Z,18.95
2023-02-22T14:26:31.023Z,18.83
2023-02-22T14:31:58.442Z,19.02
2023-02-22T14:37:10.906Z,19.32
2023-02-22T14:42:31.122Z,19.37
2023-02-22T14:47:44.117Z,19.14
2023-02-22T14:52:56.827Z,19.34
2023-02-22T14:58:19.721Z,19.03
2023-02-22T15:03:24.334Z,18.40
2023-02-22T15:08:28.816Z,18.38
2023-02-22T15:13:33.366Z,18.02
2023-02-22T15:18:43.882Z,17.12
2023-02-22T15:23:50.957Z,17.23
2023-02-22T15:29:00.547Z,17.18
2023-02-22T15:34:19.360Z,16.46
2023-02-22T15:39:27.357Z,16.78
2023-02-22T15:44:37.081Z,16.16
2023-02-22T15:49:40.989Z,15.47
2023-02-22T15:54:48.327Z,15.54
2023-02-22T15:59:56.159Z,15.57
2023-02-22T16:05:13.614Z,14.53
2023-02-22T16:10:30.128Z,14.49
2023-02-22T16:15:33.899Z,14.04
2023-02-22T16:20:39.041Z,12.52
2023-02-22T16:25:43.027Z,11.77
2023-02-22T16:30:58.664Z,11.53
2023-02-22T16:36:06.707Z,11.04
2023-02-22T16:41:09.901Z,10.63
2023-02-22T16:46:15.116Z,10.27
2023-02-22T16:51:26.311Z,9.87
2023-02-22T16:56:31.281Z,9.55
2023-02-22T17:01:35.408Z,9.38
2023-02-22T17:06:38.605Z,9.25
2023-02-22T17:11:42.973Z,9.06
2023-02-22T17:16:47.404Z,8.86
2023-02-22T17:21:51.048Z,8.42
2023-02-22T17:26:54.626Z,8.41
2023-02-22T17:31:57.892Z,8.43
2023-02-22T17:37:01.076Z,7.94
2023-02-22T17:42:04.826Z,7.72
2023-02-22T17:47:08.119Z,7.60
2023-02-22T17:52:15.854Z,7.35
2023-02-22T17:57:19.373Z,7.26
2023-02-22T18:02:22.680Z,7.26
2023-02-22T18:07:26.809Z,7.09
2023-02-22T18:12:30.538Z,6.90
2023-02-22T18:17:33.904Z,7.01
2023-02-22T18:22:42.958Z,6.94
2023-02-22T18:27:46.721Z,6.89
2023-02-22T18:32:50.238Z,6.88
2023-02-22T18:37:53.939Z,6.68
2023-02-22T18:42:57.491Z,6.43
2023-02-22T18:48:00.628Z,6.47
2023-02-22T18:53:03.860Z,6.52
2023-02-22T18:58:07.029Z,6.46
2023-02-22T19:03:10.607Z,6.70
2023-02-22T19:08:14.149Z,6.75
2023-02-22T19:13:19.196Z,6.73
2023-02-22T19:18:24.120Z,6.62
2023-02-22T19:23:28.626Z,6.64
2023-02-22T19:28:34.659Z,6.61
2023-02-22T19:33:38.675Z,6.55
2023-02-22T19:38:43.007Z,6.47
2023-02-22T19:43:47.606Z,6.38
2023-02-22T19:48:53.167Z,6.21
2023-02-22T19:54:02.754Z,6.02
2023-02-22T19:59:14.626Z,6.08
2023-02-22T20:04:21.921Z,6.10
2023-02-22T20:09:40.478Z,6.01
2023-02-22T20:14:45.204Z,6.15
2023-02-22T20:19:49.111Z,6.09
2023-02-22T20:24:52.765Z,6.06
2023-02-22T20:29:56.012Z,6.01
2023-02-22T20:34:59.868Z,5.85
2023-02-22T20:40:04.906Z,5.54
2023-02-22T20:45:11.025Z,5.34
2023-02-22T20:50:15.298Z,5.41
2023-02-22T20:55:19.301Z,5.81
2023-02-22T21:00:23.819Z,5.92
2023-02-22T21:05:27.632Z,5.97
2023-02-22T21:10:30.918Z,5.78
2023-02-22T21:15:40.201Z,5.52
2023-02-22T21:20:44.447Z,5.31
2023-02-22T21:25:54.257Z,5.21
2023-02-22T21:31:05.149Z,5.07
2023-02-22T21:36:14.594Z,5.31
2023-02-22T21:41:18.052Z,5.63
2023-02-22T21:46:22.923Z,5.62
2023-02-22T21:51:32.698Z,5.16
2023-02-22T21:56:40.024Z,4.70
2023-02-22T22:01:48.509Z,4.57
2023-02-22T22:06:54.128Z,4.47
2023-02-22T22:12:06.446Z,4.32
2023-02-22T22:17:09.837Z,4.42
2023-02-22T22:22:13.375Z,4.32
2023-02-22T22:27:16.933Z,4.11
2023-02-22T22:32:21.232Z,3.99
2023-02-22T22:37:24.386Z,3.78
2023-02-22T22:42:27.622Z,3.84
2023-02-22T22:47:31.185Z,3.98
2023-02-22T22:52:37.827Z,4.00
2023-02-22T22:57:41.955Z,3.89
2023-02-22T23:02:49.026Z,3.88
2023-02-22T23:07:53.454Z,3.77
2023-02-22T23:12:57.245Z,3.66
2023-02-22T23:18:00.374Z,3.62
2023-02-22T23:23:03.805Z,3.62
2023-02-22T23:28:14.869Z,3.47
2023-02-22T23:33:18.698Z,3.42
2023-02-22T23:38:21.881Z,3.37
2023-02-22T23:43:25.869Z,3.29
2023-02-22T23:48:30.361Z,3.28
2023-02-22T23:53:33.860Z,3.23
2023-02-22T23:58:38.451Z,3.30
